Flight Track Log - Related Links

Times and Time Zones

All times are in EDT time to prevent confusion due to time zone crossing. See the COM3115 flight status page for this flight to view local times or setup timezone preferences in your user account.

Time Position Orientation Groundspeed Altitude Reporting Facility
EDT Latitude Longitude Course Direction KTS MPH feet Rate Location/Type
Sun 10:20:25 AM 42.2036 -83.3556 184° South 146 168 1,300  Level Cleveland Center
Sun 10:20:58 AM 42.1825 -83.3575 191° South 166 191 2,300 2,027 Climbing FAA TRACON SMA TRACON (SMA)
Sun 10:21:39 AM 42.1469 -83.3672 188° South 200 230 3,800 2,195 Climbing FAA TRACON SMA TRACON (SMA)
Sun 10:22:20 AM 42.1081 -83.3747 126° Southeast 226 260 5,300 2,100 Climbing FAA TRACON SMA TRACON (SMA)
Sun 10:22:59 AM 42.0836 -83.3297 107° East 252 290 6,600 2,203 Climbing FAA TRACON SMA TRACON (SMA)
Sun 10:23:39 AM 42.0681 -83.2628 88° East 268 308 8,200 2,475 Climbing FAA TRACON SMA TRACON (SMA)
Sun 10:24:19 AM 42.0697 -83.1917 78° East 277 319 9,900 1,425 Climbing FAA TRACON SMA TRACON (SMA)
Sun 10:24:59 AM 42.0822 -83.1122 76° East 324 373 10,100 930 Climbing Cleveland Center
Sun 10:25:30 AM 42.0939 -83.0483 73° East 377 434 11,000 2,110 Climbing Cleveland Center
Sun 10:26:30 AM 42.1217 -82.9236 73° East 366 421 13,300 2,150 Climbing Cleveland Center
Sun 10:27:30 AM 42.1467 -82.8125 75° East 350 403 15,300 1,900 Climbing Cleveland Center
Sun 10:28:30 AM 42.1719 -82.6844 73° East 345 397 17,100 1,650 Climbing Cleveland Center
Sun 10:29:30 AM 42.2014 -82.5536 79° East 352 405 18,600 1,600 Climbing Cleveland Center
Sun 10:30:30 AM 42.2203 -82.4197 96° East 359 413 20,300 1,650 Climbing Cleveland Center
Sun 10:31:30 AM 42.2100 -82.2875 94° East 352 405 21,900 1,350 Climbing Cleveland Center
Sun 10:32:30 AM 42.2017 -82.1361 95° East 360 414 23,000 850 Climbing Cleveland Center
Sun 10:33:30 AM 42.1928 -82.0097 117° Southeast 367 422 23,600 650 Climbing Cleveland Center
Sun 10:34:30 AM 42.1444 -81.8825 140° Southeast 370 426 24,300 900 Climbing Cleveland Center
Sun 10:35:30 AM 42.0578 -81.7856 139° Southeast 380 437 25,400 1,300 Climbing Cleveland Center
Sun 10:36:30 AM 41.9775 -81.6919 140° Southeast 391 450 26,900 800 Climbing Cleveland Center
Sun 10:37:30 AM 41.8969 -81.6014 139° Southeast 384 442 27,000 50 Climbing Cleveland Center
Sun 10:38:30 AM 41.8125 -81.5025 138° Southeast 377 434 27,000  Level Cleveland Center
Sun 10:39:30 AM 41.7361 -81.4094 119° Southeast 372 428 27,000  Level Cleveland Center
Sun 10:40:30 AM 41.6867 -81.2922 120° Southeast 362 417 27,000  Level Cleveland Center
Sun 10:41:30 AM 41.6375 -81.1806 120° Southeast 357 411 27,000  Level Cleveland Center
Sun 10:42:30 AM 41.5878 -81.0661 120° Southeast 352 405 27,000  Level Cleveland Center
Sun 10:43:30 AM 41.5403 -80.9547 121° Southeast 352 405 27,000  Level Cleveland Center
Sun 10:44:30 AM 41.4928 -80.8492 120° Southeast 347 399 27,000  Level Cleveland Center
Sun 10:45:30 AM 41.4492 -80.7494 108° East 342 394 27,000 -550 Level Cleveland Center
Sun 10:46:30 AM 41.4181 -80.6247 112° Southeast 336 387 25,900 -1,500 Descending Cleveland Center
Sun 10:47:30 AM 41.3783 -80.4919 111° Southeast 364 419 24,000 -950 Descending Cleveland Center
Sun 10:48:30 AM 41.3428 -80.3703 110° East 367 422 24,000  Level Cleveland Center
Sun 10:49:30 AM 41.3111 -80.2569 112° Southeast 349 402 24,000  Level Cleveland Center
Sun 10:50:30 AM 41.2753 -80.1411 112° Southeast 338 389 24,000  Level Cleveland Center
Sun 10:51:30 AM 41.2417 -80.0281 112° Southeast 332 382 24,000  Level Cleveland Center
Sun 10:52:30 AM 41.2075 -79.9153 113° Southeast 332 382 24,000 -50 Level Cleveland Center
Sun 10:53:30 AM 41.1714 -79.8025 112° Southeast 332 382 23,900 -900 Descending Cleveland Center
Sun 10:54:30 AM 41.1372 -79.6897 112° Southeast 332 382 22,200 -1,700 Descending Cleveland Center
Sun 10:55:30 AM 41.0986 -79.5636 111° Southeast 332 382 20,500 -1,100 Descending Cleveland Center
Sun 10:56:30 AM 41.0664 -79.4539 112° Southeast 332 382 20,000 -250 Descending Cleveland Center
Sun 10:57:30 AM 41.0342 -79.3500 112° Southeast 322 371 20,000  Level Cleveland Center
Sun 10:58:30 AM 41.0036 -79.2486 111° Southeast 310 357 20,000  Level Cleveland Center
Sun 10:59:30 AM 40.9733 -79.1447 114° Southeast 300 345 20,000  Level Cleveland Center
Sun 11:00:30 AM 40.9386 -79.0411 112° Southeast 300 345 20,000 -450 Level Cleveland Center
Sun 11:01:30 AM 40.9036 -78.9292 112° Southeast 316 364 19,100 -1,100 Descending Cleveland Center
Sun 11:02:30 AM 40.8686 -78.8119 116° Southeast 327 376 17,800 -850 Descending Cleveland Center
Sun 11:03:30 AM 40.8294 -78.7061 112° Southeast 327 376 17,400 -550 Descending Cleveland Center
Sun 11:04:30 AM 40.7961 -78.5972 113° Southeast 327 376 16,700 -700 Descending Cleveland Center
Sun 11:05:30 AM 40.7631 -78.4942 112° Southeast 321 369 16,000 -684 Descending Cleveland Center
Sun 11:07:08 AM 40.7119 -78.3253 114° Southeast 307 353 14,900 -679 Descending New York Center
Sun 11:08:09 AM 40.6767 -78.2231 112° Southeast 302 348 14,200 -689 Descending New York Center
Sun 11:09:10 AM 40.6456 -78.1211 112° Southeast 302 348 13,500 -712 Descending New York Center
Sun 11:10:07 AM 40.6144 -78.0192 114° Southeast 302 348 12,800 -712 Descending New York Center
Sun 11:11:08 AM 40.5844 -77.9286 113° Southeast 302 348 12,100 -738 Descending New York Center
Sun 11:12:09 AM 40.5528 -77.8297 114° Southeast 302 348 11,300 -1,131 Descending New York Center
Sun 11:13:10 AM 40.5225 -77.7419 113° Southeast 292 336 9,800 -1,119 Descending New York Center
Sun 11:14:07 AM 40.4889 -77.6403 112° Southeast 281 323 9,100 -356 Descending New York Center
Sun 11:15:08 AM 40.4608 -77.5500 129° Southeast 276 318 9,100 -639 Level New York Center
Sun 11:16:09 AM 40.4111 -77.4689 131° Southeast 276 318 7,800 -1,388 Descending New York Center
Sun 11:17:09 AM 40.3633 -77.3961 131° Southeast 276 318 6,300 -1,350 Descending New York Center
Sun 11:18:09 AM 40.3189 -77.3292 130° Southeast 253 291 5,100 -610 Descending New York Center
Sun 11:19:07 AM 40.2786 -77.2656 123° Southeast 235 270 5,100  Level New York Center
Sun 11:20:08 AM 40.2506 -77.2083 119° Southeast 200 230 5,100  Level New York Center
Sun 11:21:08 AM 40.2228 -77.1433 120° Southeast 200 230 5,100  Level New York Center
Sun 11:22:09 AM 40.1875 -77.0639 122° Southeast 238 274 5,100  Level New York Center
Sun 11:23:09 AM 40.1556 -76.9958 123° Southeast 243 280 5,100  Level New York Center
Sun 11:24:09 AM 40.1311 -76.9475 117° Southeast 188 216 5,100  Level New York Center
Sun 11:25:10 AM 40.1128 -76.8997 115° Southeast 167 192 5,100 -555 Level New York Center
Sun 11:26:08 AM 40.0928 -76.8436 32° Northeast 157 181 4,000 -1,138 Descending New York Center
Sun 11:33:32 AM 40.5191 -76.4977 210° Southwest  Level Estimated
Sun 11:34:32 AM 40.1833 -76.7500 316° Northwest  Level FlightAware Approximate
Sun 11:35:32 AM 40.2318 -76.8120 316° Northwest  Level Estimated

Login

Don't have an account? Register now (free) for customized features, flight alerts, and more!